Main page
METAR-TAF:

METAR-TAF

Airports :

Reno Stead Airport

Reno, Nevada, United States

latitude: 39-40-05N, longitude: 119-52-35W, elevation: 5048 ft

Current weather observation

The report was made 25 minutes ago, at 06:35 UTC
Wind 28 mph from the Southwest with gusts up to 39 mph
Temperature 36°F
Humidity 69%
Pressure 29.50 in. Hg
Visibility: 5 miles
Scattered clouds at a height of 400 ft
Broken clouds at a height of 2400 ft
Overcast at a height of 3700 ft
light rain

METAR: KRTS 020635Z AUTO 22024G34KT 5SM -RA SCT004 BKN024 OVC037 02/M03 A2950 RMK AO2

Time: 23:00 (07:00 UTC)


TAF: missing

Weather observations and forecasts of more than 4000 airports (METAR and TAF reports).

The available stations are represented by yellow and red dots on the map.

Hover mouse over dot to see the name of the station.

Then click to see weather observations and forecasts.

To change the map : click on the green buttons with a black cross to zoom in, on the green button with a dash to zoom out, or on the green arrows for adjacent maps.


METAR-TAF: